sensor_id;sensor_type;location;lat;lon;timestamp;temperature;humidity
69335;SHT31;56477;52.742;15.242;2022-07-06T00:01:44;15.18;76.81
69335;SHT31;56477;52.742;15.242;2022-07-06T00:04:10;15.17;76.79
69335;SHT31;56477;52.742;15.242;2022-07-06T00:06:37;15.15;76.75
69335;SHT31;56477;52.742;15.242;2022-07-06T00:09:04;15.14;76.57
69335;SHT31;56477;52.742;15.242;2022-07-06T00:11:31;15.12;77.10
69335;SHT31;56477;52.742;15.242;2022-07-06T00:13:57;15.10;77.43
69335;SHT31;56477;52.742;15.242;2022-07-06T00:16:24;15.12;77.30
69335;SHT31;56477;52.742;15.242;2022-07-06T00:18:50;15.08;77.98
69335;SHT31;56477;52.742;15.242;2022-07-06T00:21:17;15.04;77.26
69335;SHT31;56477;52.742;15.242;2022-07-06T00:23:43;15.07;76.96
69335;SHT31;56477;52.742;15.242;2022-07-06T00:26:09;15.20;75.93
69335;SHT31;56477;52.742;15.242;2022-07-06T00:28:36;15.23;77.04
69335;SHT31;56477;52.742;15.242;2022-07-06T00:31:02;15.21;77.33
69335;SHT31;56477;52.742;15.242;2022-07-06T00:33:28;15.20;76.95
69335;SHT31;56477;52.742;15.242;2022-07-06T00:35:54;15.23;77.53
69335;SHT31;56477;52.742;15.242;2022-07-06T00:38:20;15.24;77.60
69335;SHT31;56477;52.742;15.242;2022-07-06T00:40:46;15.27;77.04
69335;SHT31;56477;52.742;15.242;2022-07-06T00:43:12;15.35;76.90
69335;SHT31;56477;52.742;15.242;2022-07-06T00:45:38;15.41;76.99
69335;SHT31;56477;52.742;15.242;2022-07-06T00:48:04;15.38;76.84
69335;SHT31;56477;52.742;15.242;2022-07-06T00:50:31;15.41;77.43
69335;SHT31;56477;52.742;15.242;2022-07-06T00:53:00;15.35;77.67
69335;SHT31;56477;52.742;15.242;2022-07-06T00:55:28;15.34;77.26
69335;SHT31;56477;52.742;15.242;2022-07-06T00:57:56;15.34;76.80
69335;SHT31;56477;52.742;15.242;2022-07-06T01:00:24;15.38;75.85
69335;SHT31;56477;52.742;15.242;2022-07-06T01:02:51;15.36;75.70
69335;SHT31;56477;52.742;15.242;2022-07-06T01:05:17;15.32;75.86
69335;SHT31;56477;52.742;15.242;2022-07-06T01:07:45;15.24;76.57
69335;SHT31;56477;52.742;15.242;2022-07-06T01:10:12;15.11;76.87
69335;SHT31;56477;52.742;15.242;2022-07-06T01:12:40;15.00;77.11
69335;SHT31;56477;52.742;15.242;2022-07-06T01:15:11;14.86;78.27
69335;SHT31;56477;52.742;15.242;2022-07-06T01:17:41;14.81;78.02
69335;SHT31;56477;52.742;15.242;2022-07-06T01:22:38;14.69;78.78
69335;SHT31;56477;52.742;15.242;2022-07-06T01:25:08;14.69;79.02
69335;SHT31;56477;52.742;15.242;2022-07-06T01:27:35;14.60;79.21
69335;SHT31;56477;52.742;15.242;2022-07-06T01:30:06;14.53;79.27
69335;SHT31;56477;52.742;15.242;2022-07-06T01:32:32;14.52;79.94
69335;SHT31;56477;52.742;15.242;2022-07-06T01:34:59;14.40;80.25
69335;SHT31;56477;52.742;15.242;2022-07-06T01:37:25;14.33;80.64
69335;SHT31;56477;52.742;15.242;2022-07-06T01:39:51;14.30;80.72
69335;SHT31;56477;52.742;15.242;2022-07-06T01:42:17;14.26;80.70
69335;SHT31;56477;52.742;15.242;2022-07-06T01:44:44;14.22;80.71
69335;SHT31;56477;52.742;15.242;2022-07-06T01:47:11;14.14;81.41
69335;SHT31;56477;52.742;15.242;2022-07-06T01:49:37;14.14;81.51
69335;SHT31;56477;52.742;15.242;2022-07-06T01:52:03;14.12;81.32
69335;SHT31;56477;52.742;15.242;2022-07-06T01:54:29;14.11;81.55
69335;SHT31;56477;52.742;15.242;2022-07-06T01:56:55;14.07;81.53
69335;SHT31;56477;52.742;15.242;2022-07-06T01:59:21;14.07;81.52
69335;SHT31;56477;52.742;15.242;2022-07-06T02:01:46;14.09;81.71
69335;SHT31;56477;52.742;15.242;2022-07-06T02:04:12;14.07;81.75
69335;SHT31;56477;52.742;15.242;2022-07-06T02:06:38;13.97;82.45
69335;SHT31;56477;52.742;15.242;2022-07-06T02:09:04;13.95;82.26
69335;SHT31;56477;52.742;15.242;2022-07-06T02:11:30;14.00;82.14
69335;SHT31;56477;52.742;15.242;2022-07-06T02:13:56;14.00;82.20
69335;SHT31;56477;52.742;15.242;2022-07-06T02:16:22;14.02;82.20
69335;SHT31;56477;52.742;15.242;2022-07-06T02:18:48;14.01;82.38
69335;SHT31;56477;52.742;15.242;2022-07-06T02:21:14;14.00;82.67
69335;SHT31;56477;52.742;15.242;2022-07-06T02:23:40;13.95;82.87
69335;SHT31;56477;52.742;15.242;2022-07-06T02:26:06;13.92;82.83
69335;SHT31;56477;52.742;15.242;2022-07-06T02:28:32;13.95;82.41
69335;SHT31;56477;52.742;15.242;2022-07-06T02:30:58;14.00;82.64
69335;SHT31;56477;52.742;15.242;2022-07-06T02:33:24;13.81;83.81
69335;SHT31;56477;52.742;15.242;2022-07-06T02:35:50;13.75;83.64
69335;SHT31;56477;52.742;15.242;2022-07-06T02:38:16;13.82;83.28
69335;SHT31;56477;52.742;15.242;2022-07-06T02:40:42;13.88;82.93
69335;SHT31;56477;52.742;15.242;2022-07-06T02:43:08;13.89;83.58
69335;SHT31;56477;52.742;15.242;2022-07-06T02:45:34;13.91;83.62
69335;SHT31;56477;52.742;15.242;2022-07-06T02:48:00;13.91;83.70
69335;SHT31;56477;52.742;15.242;2022-07-06T02:50:26;13.88;83.63
69335;SHT31;56477;52.742;15.242;2022-07-06T02:52:52;13.91;83.61
69335;SHT31;56477;52.742;15.242;2022-07-06T02:55:18;13.81;84.23
69335;SHT31;56477;52.742;15.242;2022-07-06T02:57:44;13.84;84.25
69335;SHT31;56477;52.742;15.242;2022-07-06T03:00:10;13.91;84.52
69335;SHT31;56477;52.742;15.242;2022-07-06T03:02:36;13.97;83.81
69335;SHT31;56477;52.742;15.242;2022-07-06T03:05:03;13.97;84.15
69335;SHT31;56477;52.742;15.242;2022-07-06T03:07:29;14.02;84.29
69335;SHT31;56477;52.742;15.242;2022-07-06T03:09:55;14.11;82.83
69335;SHT31;56477;52.742;15.242;2022-07-06T03:12:21;14.25;81.92
69335;SHT31;56477;52.742;15.242;2022-07-06T03:14:47;14.30;81.62
69335;SHT31;56477;52.742;15.242;2022-07-06T03:17:13;14.45;81.09
69335;SHT31;56477;52.742;15.242;2022-07-06T03:19:39;14.47;81.06
69335;SHT31;56477;52.742;15.242;2022-07-06T03:22:05;14.53;80.76
69335;SHT31;56477;52.742;15.242;2022-07-06T03:24:31;14.59;80.85
69335;SHT31;56477;52.742;15.242;2022-07-06T03:26:57;14.56;81.06
69335;SHT31;56477;52.742;15.242;2022-07-06T03:29:23;14.56;81.71
69335;SHT31;56477;52.742;15.242;2022-07-06T03:31:49;14.62;81.79
69335;SHT31;56477;52.742;15.242;2022-07-06T03:34:15;14.69;81.64
69335;SHT31;56477;52.742;15.242;2022-07-06T03:36:41;14.65;81.28
69335;SHT31;56477;52.742;15.242;2022-07-06T03:39:07;14.69;80.98
69335;SHT31;56477;52.742;15.242;2022-07-06T03:41:33;14.66;81.18
69335;SHT31;56477;52.742;15.242;2022-07-06T03:43:59;14.67;81.00
69335;SHT31;56477;52.742;15.242;2022-07-06T03:46:25;14.73;80.64
69335;SHT31;56477;52.742;15.242;2022-07-06T03:48:51;14.77;80.48
69335;SHT31;56477;52.742;15.242;2022-07-06T03:51:17;14.79;80.58
69335;SHT31;56477;52.742;15.242;2022-07-06T03:53:43;14.80;80.37
69335;SHT31;56477;52.742;15.242;2022-07-06T03:56:09;14.75;81.16
69335;SHT31;56477;52.742;15.242;2022-07-06T03:58:57;14.72;80.94
69335;SHT31;56477;52.742;15.242;2022-07-06T04:01:23;14.72;81.07
69335;SHT31;56477;52.742;15.242;2022-07-06T04:03:49;14.72;81.08
69335;SHT31;56477;52.742;15.242;2022-07-06T04:06:16;14.69;81.55
69335;SHT31;56477;52.742;15.242;2022-07-06T04:08:41;14.63;81.24
69335;SHT31;56477;52.742;15.242;2022-07-06T04:11:07;14.63;81.79
69335;SHT31;56477;52.742;15.242;2022-07-06T04:13:33;14.65;81.82
69335;SHT31;56477;52.742;15.242;2022-07-06T04:15:59;14.70;81.89
69335;SHT31;56477;52.742;15.242;2022-07-06T04:18:25;14.72;81.81
69335;SHT31;56477;52.742;15.242;2022-07-06T04:20:51;14.76;81.64
69335;SHT31;56477;52.742;15.242;2022-07-06T04:23:18;14.72;82.06
69335;SHT31;56477;52.742;15.242;2022-07-06T04:25:43;14.70;82.17
69335;SHT31;56477;52.742;15.242;2022-07-06T04:28:10;14.63;82.78
69335;SHT31;56477;52.742;15.242;2022-07-06T04:30:35;14.57;82.82
69335;SHT31;56477;52.742;15.242;2022-07-06T04:33:01;14.43;82.88
69335;SHT31;56477;52.742;15.242;2022-07-06T04:35:27;14.26;83.83
69335;SHT31;56477;52.742;15.242;2022-07-06T04:37:53;14.24;84.08
69335;SHT31;56477;52.742;15.242;2022-07-06T04:40:19;14.32;84.35
69335;SHT31;56477;52.742;15.242;2022-07-06T04:42:45;14.45;84.79
69335;SHT31;56477;52.742;15.242;2022-07-06T04:45:11;14.57;84.73
69335;SHT31;56477;52.742;15.242;2022-07-06T04:47:37;14.60;83.81
69335;SHT31;56477;52.742;15.242;2022-07-06T04:50:05;14.47;83.93
69335;SHT31;56477;52.742;15.242;2022-07-06T04:52:30;14.46;83.70
69335;SHT31;56477;52.742;15.242;2022-07-06T04:54:56;14.47;83.83
69335;SHT31;56477;52.742;15.242;2022-07-06T04:57:23;14.57;83.44
69335;SHT31;56477;52.742;15.242;2022-07-06T04:59:52;14.62;83.65
69335;SHT31;56477;52.742;15.242;2022-07-06T05:02:18;14.63;83.37
69335;SHT31;56477;52.742;15.242;2022-07-06T05:04:44;14.73;82.91
69335;SHT31;56477;52.742;15.242;2022-07-06T05:07:10;14.87;82.98
69335;SHT31;56477;52.742;15.242;2022-07-06T05:09:36;14.97;82.37
69335;SHT31;56477;52.742;15.242;2022-07-06T05:12:06;15.12;81.66
69335;SHT31;56477;52.742;15.242;2022-07-06T05:14:33;15.24;80.92
69335;SHT31;56477;52.742;15.242;2022-07-06T05:16:59;15.20;80.69
69335;SHT31;56477;52.742;15.242;2022-07-06T05:19:25;15.08;81.31
69335;SHT31;56477;52.742;15.242;2022-07-06T05:21:51;15.17;81.11
69335;SHT31;56477;52.742;15.242;2022-07-06T05:24:17;15.25;81.12
69335;SHT31;56477;52.742;15.242;2022-07-06T05:26:45;15.32;80.40
69335;SHT31;56477;52.742;15.242;2022-07-06T05:29:11;15.38;80.54
69335;SHT31;56477;52.742;15.242;2022-07-06T05:31:37;15.46;79.15
69335;SHT31;56477;52.742;15.242;2022-07-06T05:34:03;15.49;78.82
69335;SHT31;56477;52.742;15.242;2022-07-06T05:36:28;15.54;77.66
69335;SHT31;56477;52.742;15.242;2022-07-06T05:38:54;15.34;78.17
69335;SHT31;56477;52.742;15.242;2022-07-06T05:41:20;15.32;77.53
69335;SHT31;56477;52.742;15.242;2022-07-06T05:43:46;15.38;77.09
69335;SHT31;56477;52.742;15.242;2022-07-06T05:46:12;15.28;75.88
69335;SHT31;56477;52.742;15.242;2022-07-06T05:48:38;15.21;76.24
69335;SHT31;56477;52.742;15.242;2022-07-06T05:51:23;15.04;76.44
69335;SHT31;56477;52.742;15.242;2022-07-06T05:53:49;15.01;76.49
69335;SHT31;56477;52.742;15.242;2022-07-06T05:56:15;14.96;77.09
69335;SHT31;56477;52.742;15.242;2022-07-06T05:58:40;14.90;77.76
69335;SHT31;56477;52.742;15.242;2022-07-06T06:01:07;14.87;77.54
69335;SHT31;56477;52.742;15.242;2022-07-06T06:03:33;14.97;78.56
69335;SHT31;56477;52.742;15.242;2022-07-06T06:05:59;14.93;78.27
69335;SHT31;56477;52.742;15.242;2022-07-06T06:08:25;14.88;77.59
69335;SHT31;56477;52.742;15.242;2022-07-06T06:10:52;14.84;78.51
69335;SHT31;56477;52.742;15.242;2022-07-06T06:13:18;14.80;78.49
69335;SHT31;56477;52.742;15.242;2022-07-06T06:15:45;14.83;77.71
69335;SHT31;56477;52.742;15.242;2022-07-06T06:18:11;14.83;78.00
69335;SHT31;56477;52.742;15.242;2022-07-06T06:20:37;14.91;77.87
69335;SHT31;56477;52.742;15.242;2022-07-06T06:23:03;14.93;77.51
69335;SHT31;56477;52.742;15.242;2022-07-06T06:25:32;14.91;78.07
69335;SHT31;56477;52.742;15.242;2022-07-06T06:27:58;14.81;79.09
69335;SHT31;56477;52.742;15.242;2022-07-06T06:30:24;14.76;79.22
69335;SHT31;56477;52.742;15.242;2022-07-06T06:32:51;14.93;79.54
69335;SHT31;56477;52.742;15.242;2022-07-06T06:35:16;14.97;78.26
69335;SHT31;56477;52.742;15.242;2022-07-06T06:37:43;15.00;78.39
69335;SHT31;56477;52.742;15.242;2022-07-06T06:40:09;15.07;78.43
69335;SHT31;56477;52.742;15.242;2022-07-06T06:42:35;15.20;79.86
69335;SHT31;56477;52.742;15.242;2022-07-06T06:45:02;15.20;79.26
69335;SHT31;56477;52.742;15.242;2022-07-06T06:47:28;15.49;78.52
69335;SHT31;56477;52.742;15.242;2022-07-06T06:49:54;15.87;77.06
69335;SHT31;56477;52.742;15.242;2022-07-06T06:52:20;15.96;76.03
69335;SHT31;56477;52.742;15.242;2022-07-06T06:54:45;16.07;76.65
69335;SHT31;56477;52.742;15.242;2022-07-06T06:57:11;15.76;75.54
69335;SHT31;56477;52.742;15.242;2022-07-06T06:59:37;16.02;75.80
69335;SHT31;56477;52.742;15.242;2022-07-06T07:02:03;16.13;76.03
69335;SHT31;56477;52.742;15.242;2022-07-06T07:04:29;16.48;74.37
69335;SHT31;56477;52.742;15.242;2022-07-06T07:06:56;16.33;72.14
69335;SHT31;56477;52.742;15.242;2022-07-06T07:09:22;16.31;73.16
69335;SHT31;56477;52.742;15.242;2022-07-06T07:11:48;16.55;71.84
69335;SHT31;56477;52.742;15.242;2022-07-06T07:14:14;16.42;71.08
69335;SHT31;56477;52.742;15.242;2022-07-06T07:16:40;16.61;70.82
69335;SHT31;56477;52.742;15.242;2022-07-06T07:19:06;16.60;70.11
69335;SHT31;56477;52.742;15.242;2022-07-06T07:21:32;17.00;70.59
69335;SHT31;56477;52.742;15.242;2022-07-06T07:23:58;17.13;70.37
69335;SHT31;56477;52.742;15.242;2022-07-06T07:26:23;17.40;67.77
69335;SHT31;56477;52.742;15.242;2022-07-06T07:28:49;18.35;65.22
69335;SHT31;56477;52.742;15.242;2022-07-06T07:31:15;19.45;63.93
69335;SHT31;56477;52.742;15.242;2022-07-06T07:33:41;19.97;58.52
69335;SHT31;56477;52.742;15.242;2022-07-06T07:36:08;19.96;57.24
69335;SHT31;56477;52.742;15.242;2022-07-06T07:38:33;19.90;57.53
69335;SHT31;56477;52.742;15.242;2022-07-06T07:40:59;19.84;57.28
69335;SHT31;56477;52.742;15.242;2022-07-06T07:43:25;19.52;59.64
69335;SHT31;56477;52.742;15.242;2022-07-06T07:45:51;20.07;58.06
69335;SHT31;56477;52.742;15.242;2022-07-06T07:48:18;21.40;54.27
69335;SHT31;56477;52.742;15.242;2022-07-06T07:50:44;21.47;53.50
69335;SHT31;56477;52.742;15.242;2022-07-06T07:53:09;20.49;55.83
69335;SHT31;56477;52.742;15.242;2022-07-06T07:55:35;20.27;55.83
69335;SHT31;56477;52.742;15.242;2022-07-06T07:58:01;20.14;54.34
69335;SHT31;56477;52.742;15.242;2022-07-06T08:00:27;19.59;54.36
69335;SHT31;56477;52.742;15.242;2022-07-06T08:02:54;20.25;53.90
69335;SHT31;56477;52.742;15.242;2022-07-06T08:05:21;20.80;51.48
69335;SHT31;56477;52.742;15.242;2022-07-06T08:07:47;21.14;51.74
69335;SHT31;56477;52.742;15.242;2022-07-06T08:10:13;20.48;51.85
69335;SHT31;56477;52.742;15.242;2022-07-06T08:12:39;20.49;53.43
69335;SHT31;56477;52.742;15.242;2022-07-06T08:15:06;20.31;52.29
69335;SHT31;56477;52.742;15.242;2022-07-06T08:17:32;20.48;53.84
69335;SHT31;56477;52.742;15.242;2022-07-06T08:19:59;19.87;53.00
69335;SHT31;56477;52.742;15.242;2022-07-06T08:22:25;19.87;52.90
69335;SHT31;56477;52.742;15.242;2022-07-06T08:24:52;19.48;54.53
69335;SHT31;56477;52.742;15.242;2022-07-06T08:27:18;20.68;50.20
69335;SHT31;56477;52.742;15.242;2022-07-06T08:29:44;20.75;49.95
69335;SHT31;56477;52.742;15.242;2022-07-06T08:32:10;21.22;48.88
69335;SHT31;56477;52.742;15.242;2022-07-06T08:34:36;20.48;49.41
69335;SHT31;56477;52.742;15.242;2022-07-06T08:37:02;22.42;47.25
69335;SHT31;56477;52.742;15.242;2022-07-06T08:39:28;22.35;45.91
69335;SHT31;56477;52.742;15.242;2022-07-06T08:41:56;22.87;46.18
69335;SHT31;56477;52.742;15.242;2022-07-06T08:44:23;22.81;45.70
69335;SHT31;56477;52.742;15.242;2022-07-06T08:46:50;22.15;48.69
69335;SHT31;56477;52.742;15.242;2022-07-06T08:49:18;22.02;46.26
69335;SHT31;56477;52.742;15.242;2022-07-06T08:51:44;22.64;46.12
69335;SHT31;56477;52.742;15.242;2022-07-06T08:54:11;23.76;44.42
69335;SHT31;56477;52.742;15.242;2022-07-06T08:56:38;22.54;43.99
69335;SHT31;56477;52.742;15.242;2022-07-06T08:59:04;21.51;47.04
69335;SHT31;56477;52.742;15.242;2022-07-06T09:01:30;20.28;50.11
69335;SHT31;56477;52.742;15.242;2022-07-06T09:03:56;20.41;50.29
69335;SHT31;56477;52.742;15.242;2022-07-06T09:06:24;20.96;47.46
69335;SHT31;56477;52.742;15.242;2022-07-06T09:08:53;21.82;45.14
69335;SHT31;56477;52.742;15.242;2022-07-06T09:11:23;22.97;42.38
69335;SHT31;56477;52.742;15.242;2022-07-06T09:13:50;22.08;44.81
69335;SHT31;56477;52.742;15.242;2022-07-06T09:16:17;20.89;45.37
69335;SHT31;56477;52.742;15.242;2022-07-06T09:18:46;20.04;48.35
69335;SHT31;56477;52.742;15.242;2022-07-06T09:21:32;19.72;49.59
69335;SHT31;56477;52.742;15.242;2022-07-06T09:24:05;19.29;50.24
69335;SHT31;56477;52.742;15.242;2022-07-06T09:26:31;19.51;48.35
69335;SHT31;56477;52.742;15.242;2022-07-06T09:28:58;19.62;48.00
69335;SHT31;56477;52.742;15.242;2022-07-06T09:31:25;19.49;48.30
69335;SHT31;56477;52.742;15.242;2022-07-06T09:34:05;19.39;48.13
69335;SHT31;56477;52.742;15.242;2022-07-06T09:36:43;19.28;49.02
69335;SHT31;56477;52.742;15.242;2022-07-06T09:41:53;19.21;48.75
69335;SHT31;56477;52.742;15.242;2022-07-06T09:44:24;20.48;46.29
69335;SHT31;56477;52.742;15.242;2022-07-06T09:46:50;20.38;45.60
69335;SHT31;56477;52.742;15.242;2022-07-06T09:49:19;20.32;46.74
69335;SHT31;56477;52.742;15.242;2022-07-06T09:51:50;19.65;47.05
69335;SHT31;56477;52.742;15.242;2022-07-06T09:54:16;19.48;47.25
69335;SHT31;56477;52.742;15.242;2022-07-06T09:56:44;19.51;48.21
69335;SHT31;56477;52.742;15.242;2022-07-06T09:59:15;19.32;47.30
69335;SHT31;56477;52.742;15.242;2022-07-06T10:01:41;19.43;47.59
69335;SHT31;56477;52.742;15.242;2022-07-06T10:04:09;19.82;47.11
69335;SHT31;56477;52.742;15.242;2022-07-06T10:06:35;20.21;46.58
69335;SHT31;56477;52.742;15.242;2022-07-06T10:09:05;19.53;47.41
69335;SHT31;56477;52.742;15.242;2022-07-06T10:11:34;19.16;48.16
69335;SHT31;56477;52.742;15.242;2022-07-06T10:14:03;19.51;48.25
69335;SHT31;56477;52.742;15.242;2022-07-06T10:16:30;19.56;47.96
69335;SHT31;56477;52.742;15.242;2022-07-06T10:18:57;19.59;47.99
69335;SHT31;56477;52.742;15.242;2022-07-06T10:21:25;19.97;48.00
69335;SHT31;56477;52.742;15.242;2022-07-06T10:23:51;19.89;47.65
69335;SHT31;56477;52.742;15.242;2022-07-06T10:26:17;19.48;48.32
69335;SHT31;56477;52.742;15.242;2022-07-06T10:28:45;19.46;49.11
69335;SHT31;56477;52.742;15.242;2022-07-06T10:31:14;19.34;49.38
69335;SHT31;56477;52.742;15.242;2022-07-06T10:33:41;19.28;49.16
69335;SHT31;56477;52.742;15.242;2022-07-06T10:36:08;19.43;50.35
69335;SHT31;56477;52.742;15.242;2022-07-06T10:38:35;19.24;49.78
69335;SHT31;56477;52.742;15.242;2022-07-06T10:41:06;19.36;50.26
69335;SHT31;56477;52.742;15.242;2022-07-06T10:43:38;19.74;48.80
69335;SHT31;56477;52.742;15.242;2022-07-06T10:46:12;19.82;49.03
69335;SHT31;56477;52.742;15.242;2022-07-06T10:48:40;19.72;48.13
69335;SHT31;56477;52.742;15.242;2022-07-06T10:51:07;19.76;47.63
69335;SHT31;56477;52.742;15.242;2022-07-06T10:53:39;19.73;48.44
69335;SHT31;56477;52.742;15.242;2022-07-06T10:56:09;19.59;48.48
69335;SHT31;56477;52.742;15.242;2022-07-06T10:58:47;19.55;48.74
69335;SHT31;56477;52.742;15.242;2022-07-06T11:01:14;19.36;49.15
69335;SHT31;56477;52.742;15.242;2022-07-06T11:06:39;19.32;48.46
69335;SHT31;56477;52.742;15.242;2022-07-06T11:09:09;19.34;48.90
69335;SHT31;56477;52.742;15.242;2022-07-06T11:16:38;19.46;48.27
69335;SHT31;56477;52.742;15.242;2022-07-06T11:19:07;19.39;48.33
69335;SHT31;56477;52.742;15.242;2022-07-06T11:21:47;19.51;47.14
69335;SHT31;56477;52.742;15.242;2022-07-06T11:24:18;19.51;47.17
69335;SHT31;56477;52.742;15.242;2022-07-06T11:26:46;19.53;47.17
69335;SHT31;56477;52.742;15.242;2022-07-06T11:29:13;19.67;48.05
69335;SHT31;56477;52.742;15.242;2022-07-06T11:31:42;19.61;48.01
69335;SHT31;56477;52.742;15.242;2022-07-06T11:34:10;19.86;46.91
69335;SHT31;56477;52.742;15.242;2022-07-06T11:36:37;19.94;47.08
69335;SHT31;56477;52.742;15.242;2022-07-06T11:39:04;20.38;47.11
69335;SHT31;56477;52.742;15.242;2022-07-06T11:41:33;20.37;46.79
69335;SHT31;56477;52.742;15.242;2022-07-06T11:44:00;20.22;45.42
69335;SHT31;56477;52.742;15.242;2022-07-06T11:48:59;20.10;45.32
69335;SHT31;56477;52.742;15.242;2022-07-06T11:51:28;19.93;46.29
69335;SHT31;56477;52.742;15.242;2022-07-06T11:54:03;19.67;47.64
69335;SHT31;56477;52.742;15.242;2022-07-06T11:56:34;20.21;46.71
69335;SHT31;56477;52.742;15.242;2022-07-06T11:59:00;20.09;45.30
69335;SHT31;56477;52.742;15.242;2022-07-06T12:01:28;19.80;45.20
69335;SHT31;56477;52.742;15.242;2022-07-06T12:04:01;19.10;46.85
69335;SHT31;56477;52.742;15.242;2022-07-06T12:06:30;19.34;46.89
69335;SHT31;56477;52.742;15.242;2022-07-06T12:08:57;19.15;47.90
69335;SHT31;56477;52.742;15.242;2022-07-06T12:11:27;19.25;48.32
69335;SHT31;56477;52.742;15.242;2022-07-06T12:13:56;19.01;48.13
69335;SHT31;56477;52.742;15.242;2022-07-06T12:16:33;18.80;49.87
69335;SHT31;56477;52.742;15.242;2022-07-06T12:19:01;18.80;48.84
69335;SHT31;56477;52.742;15.242;2022-07-06T12:21:28;18.81;48.98
69335;SHT31;56477;52.742;15.242;2022-07-06T12:23:54;19.11;48.72
69335;SHT31;56477;52.742;15.242;2022-07-06T12:26:23;19.16;49.07
69335;SHT31;56477;52.742;15.242;2022-07-06T12:29:07;19.21;48.78
69335;SHT31;56477;52.742;15.242;2022-07-06T12:34:05;19.36;48.99
69335;SHT31;56477;52.742;15.242;2022-07-06T12:36:56;19.52;48.29
69335;SHT31;56477;52.742;15.242;2022-07-06T12:39:27;19.42;49.02
69335;SHT31;56477;52.742;15.242;2022-07-06T12:42:04;19.49;48.41
69335;SHT31;56477;52.742;15.242;2022-07-06T12:44:42;19.76;47.58
69335;SHT31;56477;52.742;15.242;2022-07-06T12:47:10;20.30;47.38
69335;SHT31;56477;52.742;15.242;2022-07-06T12:49:38;19.98;47.74
69335;SHT31;56477;52.742;15.242;2022-07-06T12:54:47;19.94;47.18
69335;SHT31;56477;52.742;15.242;2022-07-06T12:57:15;20.17;46.71
69335;SHT31;56477;52.742;15.242;2022-07-06T13:05:05;20.42;45.77
69335;SHT31;56477;52.742;15.242;2022-07-06T13:07:32;20.83;45.68
69335;SHT31;56477;52.742;15.242;2022-07-06T13:10:03;21.16;44.77
69335;SHT31;56477;52.742;15.242;2022-07-06T13:12:30;21.37;43.12
69335;SHT31;56477;52.742;15.242;2022-07-06T13:14:56;21.65;43.55
69335;SHT31;56477;52.742;15.242;2022-07-06T13:17:22;20.90;43.65
69335;SHT31;56477;52.742;15.242;2022-07-06T13:19:49;20.67;44.29
69335;SHT31;56477;52.742;15.242;2022-07-06T13:22:15;20.17;46.30
69335;SHT31;56477;52.742;15.242;2022-07-06T13:24:41;20.28;45.62
69335;SHT31;56477;52.742;15.242;2022-07-06T13:27:07;19.97;47.00
69335;SHT31;56477;52.742;15.242;2022-07-06T13:32:55;19.42;50.19
69335;SHT31;56477;52.742;15.242;2022-07-06T13:35:22;19.32;50.66
69335;SHT31;56477;52.742;15.242;2022-07-06T13:37:51;19.14;51.64
69335;SHT31;56477;52.742;15.242;2022-07-06T13:40:17;19.10;51.84
69335;SHT31;56477;52.742;15.242;2022-07-06T13:42:42;19.34;51.57
69335;SHT31;56477;52.742;15.242;2022-07-06T13:45:09;19.36;50.98
69335;SHT31;56477;52.742;15.242;2022-07-06T13:47:35;19.63;52.04
69335;SHT31;56477;52.742;15.242;2022-07-06T13:50:01;19.62;51.62
69335;SHT31;56477;52.742;15.242;2022-07-06T13:52:26;19.61;50.81
69335;SHT31;56477;52.742;15.242;2022-07-06T13:54:53;19.61;49.65
69335;SHT31;56477;52.742;15.242;2022-07-06T13:57:18;19.74;48.91
69335;SHT31;56477;52.742;15.242;2022-07-06T13:59:44;19.97;49.87
69335;SHT31;56477;52.742;15.242;2022-07-06T14:02:12;19.79;48.33
69335;SHT31;56477;52.742;15.242;2022-07-06T14:04:38;19.67;46.85
69335;SHT31;56477;52.742;15.242;2022-07-06T14:07:04;19.93;44.50
69335;SHT31;56477;52.742;15.242;2022-07-06T14:09:30;20.10;45.39
69335;SHT31;56477;52.742;15.242;2022-07-06T14:11:56;20.01;46.31
69335;SHT31;56477;52.742;15.242;2022-07-06T14:14:22;20.18;46.29
69335;SHT31;56477;52.742;15.242;2022-07-06T14:16:48;20.25;46.75
69335;SHT31;56477;52.742;15.242;2022-07-06T14:19:14;20.34;46.69
69335;SHT31;56477;52.742;15.242;2022-07-06T14:21:40;20.62;47.22
69335;SHT31;56477;52.742;15.242;2022-07-06T14:24:06;21.03;46.32
69335;SHT31;56477;52.742;15.242;2022-07-06T14:26:32;20.45;47.07
69335;SHT31;56477;52.742;15.242;2022-07-06T14:28:59;20.17;47.32
69335;SHT31;56477;52.742;15.242;2022-07-06T14:31:25;20.47;47.35
69335;SHT31;56477;52.742;15.242;2022-07-06T14:33:51;20.13;48.05
69335;SHT31;56477;52.742;15.242;2022-07-06T14:36:17;20.16;48.03
69335;SHT31;56477;52.742;15.242;2022-07-06T14:38:43;20.09;48.97
69335;SHT31;56477;52.742;15.242;2022-07-06T14:41:09;19.86;48.47
69335;SHT31;56477;52.742;15.242;2022-07-06T14:43:35;19.80;49.18
69335;SHT31;56477;52.742;15.242;2022-07-06T14:46:02;19.70;49.31
69335;SHT31;56477;52.742;15.242;2022-07-06T14:48:28;19.72;49.81
69335;SHT31;56477;52.742;15.242;2022-07-06T14:50:54;19.52;49.36
69335;SHT31;56477;52.742;15.242;2022-07-06T14:53:20;19.22;50.38
69335;SHT31;56477;52.742;15.242;2022-07-06T14:55:47;19.22;50.72
69335;SHT31;56477;52.742;15.242;2022-07-06T14:58:13;19.19;50.67
69335;SHT31;56477;52.742;15.242;2022-07-06T15:00:41;19.21;50.67
69335;SHT31;56477;52.742;15.242;2022-07-06T15:03:07;19.22;50.52
69335;SHT31;56477;52.742;15.242;2022-07-06T15:05:33;18.93;50.11
69335;SHT31;56477;52.742;15.242;2022-07-06T15:07:59;19.03;51.11
69335;SHT31;56477;52.742;15.242;2022-07-06T15:10:25;19.04;50.24
69335;SHT31;56477;52.742;15.242;2022-07-06T15:12:50;19.05;50.81
69335;SHT31;56477;52.742;15.242;2022-07-06T15:15:16;19.16;51.03
69335;SHT31;56477;52.742;15.242;2022-07-06T15:17:42;18.97;50.52
69335;SHT31;56477;52.742;15.242;2022-07-06T15:20:09;18.90;51.46
69335;SHT31;56477;52.742;15.242;2022-07-06T15:22:36;18.87;51.81
69335;SHT31;56477;52.742;15.242;2022-07-06T15:25:03;18.73;51.40
69335;SHT31;56477;52.742;15.242;2022-07-06T15:27:29;18.78;51.58
69335;SHT31;56477;52.742;15.242;2022-07-06T15:29:56;18.91;51.98
69335;SHT31;56477;52.742;15.242;2022-07-06T15:32:22;18.91;52.33
69335;SHT31;56477;52.742;15.242;2022-07-06T15:34:48;18.94;51.70
69335;SHT31;56477;52.742;15.242;2022-07-06T15:37:14;18.70;52.33
69335;SHT31;56477;52.742;15.242;2022-07-06T15:39:40;18.53;52.77
69335;SHT31;56477;52.742;15.242;2022-07-06T15:42:06;18.45;53.05
69335;SHT31;56477;52.742;15.242;2022-07-06T15:44:32;18.36;54.15